Time;durP1;ratioP1;P1;durP2;ratioP2;P2;SDS_P1;SDS_P2;PMS_P1;PMS_P2;Temp;Humidity;BMP_temperature;BMP_pressure;BME280_temperature;BME280_humidity;BME280_pressure;Samples;Min_cycle;Max_cycle;Signal;HPM_P1;HPM_P2
2021/06/28 00:01:46;;;;;;;0.10;0.10;;;16.70;70.70;;;;;;5013172;28;20096;-68
2021/06/28 00:04:12;;;;;;;0.00;0.00;;;16.60;70.80;;;;;;5013611;28;20050;-68
2021/06/28 00:06:39;;;;;;;0.00;0.00;;;16.60;70.80;;;;;;5013658;28;20143;-68
2021/06/28 00:09:05;;;;;;;0.00;0.00;;;16.60;70.90;;;;;;5013152;28;20129;-68
2021/06/28 00:11:32;;;;;;;0.00;0.00;;;16.60;71.00;;;;;;5013383;28;20124;-68
2021/06/28 00:13:58;;;;;;;0.10;0.10;;;16.60;71.00;;;;;;5012970;28;20128;-68
2021/06/28 00:16:24;;;;;;;0.10;0.10;;;16.50;71.10;;;;;;5013408;28;20054;-68
2021/06/28 00:18:52;;;;;;;0.20;0.20;;;16.50;71.30;;;;;;5012833;28;20107;-69
2021/06/28 00:21:20;;;;;;;0.10;0.10;;;16.40;71.40;;;;;;5013466;28;20092;-68
2021/06/28 00:23:47;;;;;;;0.10;0.00;;;16.40;71.60;;;;;;5013239;28;20077;-68
2021/06/28 00:26:14;;;;;;;0.15;0.15;;;16.30;71.70;;;;;;5012258;28;20042;-68
2021/06/28 00:28:40;;;;;;;0.10;0.00;;;16.20;71.80;;;;;;5013559;28;20099;-68
2021/06/28 00:31:08;;;;;;;0.10;0.10;;;16.10;72.00;;;;;;5013157;28;20405;-68
2021/06/28 00:33:34;;;;;;;0.10;0.10;;;16.10;72.30;;;;;;5012649;28;20395;-68
2021/06/28 00:36:01;;;;;;;0.20;0.20;;;16.00;72.50;;;;;;5012281;28;20050;-68
2021/06/28 00:38:27;;;;;;;0.20;0.20;;;15.90;72.50;;;;;;5013331;28;20125;-68
2021/06/28 00:40:53;;;;;;;0.00;0.00;;;15.90;72.70;;;;;;5013086;28;20048;-68
2021/06/28 00:43:20;;;;;;;0.57;0.30;;;15.80;72.80;;;;;;5013165;28;20046;-68
2021/06/28 00:45:47;;;;;;;0.00;0.00;;;15.80;73.00;;;;;;5012717;28;20077;-68
2021/06/28 00:48:18;;;;;;;0.10;0.10;;;15.70;73.10;;;;;;5012442;28;20139;-68
2021/06/28 00:50:47;;;;;;;0.05;0.05;;;15.70;73.30;;;;;;5012813;28;20181;-68
2021/06/28 00:53:15;;;;;;;0.10;0.00;;;15.60;73.50;;;;;;5012766;28;20132;-68
2021/06/28 00:55:43;;;;;;;0.10;0.10;;;15.60;73.70;;;;;;5012805;28;20501;-69
2021/06/28 00:58:09;;;;;;;0.20;0.20;;;15.60;73.70;;;;;;5012240;28;20046;-68
2021/06/28 01:00:37;;;;;;;0.10;0.10;;;15.60;73.90;;;;;;5012710;28;20064;-68
2021/06/28 01:03:07;;;;;;;;;;;15.60;73.90;;;;;;5012837;28;20050;-68
2021/06/28 01:05:40;;;;;;;0.10;0.10;;;15.50;73.90;;;;;;5012807;28;19925;-68
2021/06/28 01:08:10;;;;;;;0.10;0.10;;;15.50;73.90;;;;;;5012403;28;20128;-68
2021/06/28 01:10:38;;;;;;;0.32;0.10;;;15.40;74.10;;;;;;5012413;28;20042;-68
2021/06/28 01:13:07;;;;;;;0.00;0.00;;;15.40;74.20;;;;;;5009983;28;20056;-70
2021/06/28 01:15:34;;;;;;;0.10;0.10;;;15.40;74.50;;;;;;5012268;28;20081;-68
2021/06/28 01:18:02;;;;;;;0.30;0.10;;;15.30;74.70;;;;;;5011961;28;20050;-69
2021/06/28 01:20:29;;;;;;;0.13;0.13;;;15.20;74.90;;;;;;5012181;28;20129;-69
2021/06/28 01:23:16;;;;;;;0.22;0.22;;;15.20;75.20;;;;;;5011957;28;20116;-68
2021/06/28 01:25:42;;;;;;;0.28;0.20;;;15.10;75.50;;;;;;5012365;28;20050;-68
2021/06/28 01:28:09;;;;;;;0.17;0.17;;;15.10;75.90;;;;;;5011878;28;20046;-68
2021/06/28 01:30:35;;;;;;;0.00;0.00;;;15.00;76.00;;;;;;5012064;28;20065;-68
2021/06/28 01:33:02;;;;;;;0.20;0.20;;;15.00;76.20;;;;;;5011630;28;20172;-68
2021/06/28 01:35:28;;;;;;;0.15;0.15;;;15.00;76.30;;;;;;5003086;28;20052;-68
2021/06/28 01:37:55;;;;;;;0.10;0.10;;;14.90;77.30;;;;;;5012081;28;20042;-68
2021/06/28 01:40:21;;;;;;;0.28;0.10;;;14.90;76.50;;;;;;5011770;28;20057;-69
2021/06/28 01:42:49;;;;;;;0.17;0.17;;;14.80;76.60;;;;;;5012178;28;20088;-68
2021/06/28 01:45:22;;;;;;;0.20;0.20;;;14.80;76.60;;;;;;5006028;28;20133;-68
2021/06/28 01:47:49;;;;;;;0.10;0.10;;;14.80;76.60;;;;;;5002978;28;20061;-68
2021/06/28 01:50:18;;;;;;;0.15;0.15;;;14.80;76.50;;;;;;5006898;28;20433;-68
2021/06/28 01:52:45;;;;;;;0.17;0.17;;;14.80;76.60;;;;;;5011727;28;20081;-68
2021/06/28 01:55:13;;;;;;;0.10;0.10;;;14.80;76.60;;;;;;5011719;28;20525;-68
2021/06/28 01:57:57;;;;;;;0.10;0.10;;;14.70;76.70;;;;;;5011711;28;20103;-68
2021/06/28 02:00:30;;;;;;;0.08;0.08;;;14.70;76.70;;;;;;5011668;28;20050;-68
2021/06/28 02:02:58;;;;;;;0.10;0.10;;;14.70;76.50;;;;;;5010812;28;20129;-68
2021/06/28 02:05:27;;;;;;;0.10;0.10;;;14.80;76.30;;;;;;5007060;28;20132;-68
2021/06/28 02:07:54;;;;;;;0.20;0.20;;;14.80;76.00;;;;;;5011576;28;20157;-68
2021/06/28 02:10:20;;;;;;;0.10;0.10;;;14.90;75.70;;;;;;5011605;28;20476;-68
2021/06/28 02:12:47;;;;;;;0.20;0.13;;;14.90;75.50;;;;;;5011634;28;20526;-68
2021/06/28 02:15:22;;;;;;;0.10;0.10;;;14.90;75.70;;;;;;5011596;28;20200;-68
2021/06/28 02:17:49;;;;;;;0.25;0.25;;;14.80;75.90;;;;;;5011636;28;20128;-69
2021/06/28 02:20:16;;;;;;;0.32;0.20;;;14.80;76.20;;;;;;5011456;28;20087;-68
2021/06/28 02:22:43;;;;;;;0.10;0.10;;;14.80;77.00;;;;;;5011653;28;20493;-68
2021/06/28 02:25:11;;;;;;;0.10;0.10;;;14.80;76.20;;;;;;5013655;28;20046;-68
2021/06/28 02:27:39;;;;;;;0.10;0.10;;;14.90;76.00;;;;;;5007183;28;20085;-68
2021/06/28 02:30:09;;;;;;;0.10;0.10;;;14.90;75.70;;;;;;5014946;28;20135;-68
2021/06/28 02:32:35;;;;;;;0.03;0.03;;;15.00;75.30;;;;;;5015312;28;20127;-68
2021/06/28 02:35:05;;;;;;;0.00;0.00;;;15.00;75.00;;;;;;5005531;28;20050;-68
2021/06/28 02:37:32;;;;;;;0.05;0.05;;;15.10;74.80;;;;;;5005615;28;20096;-69
2021/06/28 02:39:59;;;;;;;0.00;0.00;;;15.10;74.60;;;;;;5014808;28;20513;-68
2021/06/28 02:42:25;;;;;;;0.10;0.10;;;15.00;74.30;;;;;;4998564;28;20177;-68
2021/06/28 02:44:52;;;;;;;0.15;0.15;;;15.10;74.40;;;;;;5010215;28;20046;-68
2021/06/28 02:47:19;;;;;;;0.20;0.20;;;15.00;74.30;;;;;;5014298;28;20129;-68
2021/06/28 02:49:45;;;;;;;0.50;0.20;;;15.00;74.20;;;;;;5014858;28;20132;-68
2021/06/28 02:52:11;;;;;;;0.08;0.08;;;15.00;74.30;;;;;;5014605;28;20103;-68
2021/06/28 02:54:38;;;;;;;0.10;0.10;;;15.00;74.30;;;;;;5015216;28;20046;-69
2021/06/28 02:57:04;;;;;;;0.20;0.20;;;15.00;74.30;;;;;;5014800;28;20045;-68
2021/06/28 02:59:31;;;;;;;0.20;0.20;;;14.90;74.20;;;;;;5012309;28;20177;-69
2021/06/28 03:01:57;;;;;;;0.10;0.10;;;14.90;74.20;;;;;;5011010;28;20054;-68
2021/06/28 03:04:24;;;;;;;0.20;0.20;;;14.80;74.30;;;;;;5014978;28;20049;-68
2021/06/28 03:06:50;;;;;;;0.03;0.00;;;14.70;74.20;;;;;;5014779;28;20505;-69
2021/06/28 03:09:16;;;;;;;0.10;0.10;;;14.60;74.70;;;;;;5014666;28;20061;-68
2021/06/28 03:11:43;;;;;;;0.10;0.10;;;14.60;74.90;;;;;;5014964;28;20054;-68
2021/06/28 03:14:09;;;;;;;0.10;0.10;;;14.60;75.00;;;;;;5014287;28;20124;-68
2021/06/28 03:16:35;;;;;;;0.20;0.15;;;14.60;74.90;;;;;;5014775;28;20129;-68
2021/06/28 03:19:02;;;;;;;0.20;0.20;;;14.60;74.90;;;;;;5014580;28;20565;-68
2021/06/28 03:21:28;;;;;;;0.20;0.20;;;14.70;74.80;;;;;;5014210;28;20052;-68
2021/06/28 03:23:55;;;;;;;0.03;0.03;;;14.60;74.60;;;;;;5014311;28;20049;-68
2021/06/28 03:26:21;;;;;;;0.10;0.10;;;14.60;74.80;;;;;;5014088;28;20103;-68
2021/06/28 03:28:48;;;;;;;0.30;0.20;;;14.50;74.90;;;;;;5009709;28;20050;-68
2021/06/28 03:31:14;;;;;;;0.10;0.10;;;14.50;75.20;;;;;;5009852;28;20049;-68
2021/06/28 03:33:40;;;;;;;0.08;0.08;;;14.60;75.20;;;;;;5013875;28;20061;-68
2021/06/28 03:36:08;;;;;;;0.20;0.17;;;14.60;75.30;;;;;;4988498;28;20089;-68
2021/06/28 03:38:35;;;;;;;0.20;0.20;;;14.60;75.30;;;;;;5013195;28;20517;-68
2021/06/28 03:41:01;;;;;;;0.10;0.10;;;14.70;75.20;;;;;;5014241;28;20494;-68
2021/06/28 03:43:28;;;;;;;0.55;0.30;;;14.70;74.90;;;;;;5013849;28;20386;-68
2021/06/28 03:45:54;;;;;;;0.20;0.20;;;14.80;74.70;;;;;;5014370;28;20064;-68
2021/06/28 03:48:20;;;;;;;0.20;0.20;;;14.50;75.20;;;;;;5011443;28;20057;-68
2021/06/28 03:50:48;;;;;;;0.05;0.05;;;14.40;76.20;;;;;;4997146;28;20053;-68
2021/06/28 03:53:14;;;;;;;0.40;0.20;;;14.30;76.70;;;;;;5008334;28;20567;-68
2021/06/28 03:55:41;;;;;;;0.10;0.10;;;14.30;77.00;;;;;;5013769;28;20046;-68
2021/06/28 03:58:07;;;;;;;0.65;0.20;;;14.30;77.20;;;;;;5013683;28;20045;-68
2021/06/28 04:00:33;;;;;;;0.25;0.20;;;14.30;77.20;;;;;;5013959;28;20046;-68
2021/06/28 04:03:01;;;;;;;0.10;0.10;;;14.20;77.40;;;;;;5014107;28;20139;-68
2021/06/28 04:05:28;;;;;;;0.20;0.20;;;14.20;77.80;;;;;;5013594;28;20050;-68
2021/06/28 04:07:54;;;;;;;0.13;0.13;;;14.30;77.90;;;;;;5013962;28;20053;-68
2021/06/28 04:10:23;;;;;;;0.20;0.13;;;14.30;77.70;;;;;;5013591;28;20058;-68
2021/06/28 04:12:52;;;;;;;0.28;0.10;;;14.40;77.50;;;;;;5006908;28;20637;-68
2021/06/28 04:15:19;;;;;;;0.10;0.10;;;14.50;77.20;;;;;;5013349;28;20136;-67
2021/06/28 04:17:48;;;;;;;0.43;0.15;;;14.60;77.10;;;;;;5013513;28;20057;-68
2021/06/28 04:20:16;;;;;;;0.10;0.10;;;14.60;77.00;;;;;;5013125;28;20403;-69
2021/06/28 04:22:43;;;;;;;0.10;0.10;;;14.60;77.10;;;;;;5013323;28;20046;-69
2021/06/28 04:25:13;;;;;;;0.20;0.20;;;14.60;77.50;;;;;;5013195;28;20621;-69
2021/06/28 04:27:40;;;;;;;0.13;0.13;;;14.50;77.60;;;;;;5006053;28;20053;-68
2021/06/28 04:30:09;;;;;;;0.20;0.20;;;14.60;78.00;;;;;;4985953;28;20072;-68
2021/06/28 04:32:35;;;;;;;0.05;0.05;;;14.50;78.90;;;;;;5012925;28;20058;-68
2021/06/28 04:35:04;;;;;;;0.13;0.13;;;14.40;79.70;;;;;;5003152;28;20055;-68
2021/06/28 04:37:31;;;;;;;0.20;0.20;;;14.40;80.40;;;;;;5003787;28;20438;-68
2021/06/28 04:39:57;;;;;;;0.10;0.10;;;14.40;81.10;;;;;;5012713;28;20045;-68
2021/06/28 04:42:24;;;;;;;0.15;0.13;;;14.30;81.10;;;;;;5012988;28;20053;-69
2021/06/28 04:44:50;;;;;;;0.20;0.20;;;14.40;81.40;;;;;;5012891;28;20402;-69
2021/06/28 04:47:16;;;;;;;0.10;0.10;;;14.50;81.40;;;;;;5012686;28;20050;-69
2021/06/28 04:49:43;;;;;;;0.20;0.20;;;14.50;81.20;;;;;;5013078;28;20115;-68
2021/06/28 04:52:09;;;;;;;0.00;0.00;;;14.50;81.30;;;;;;5012550;28;20180;-68
2021/06/28 04:54:36;;;;;;;0.13;0.13;;;14.50;81.60;;;;;;5012736;28;20050;-68
2021/06/28 04:57:02;;;;;;;0.20;0.03;;;14.50;82.30;;;;;;5012621;28;20046;-68
2021/06/28 04:59:28;;;;;;;0.25;0.20;;;14.60;81.40;;;;;;5004853;28;20061;-69
2021/06/28 05:01:55;;;;;;;0.20;0.20;;;14.70;81.10;;;;;;4997968;28;20047;-68
2021/06/28 05:04:21;;;;;;;0.10;0.10;;;14.70;80.90;;;;;;4993993;28;20050;-68
2021/06/28 05:06:48;;;;;;;0.98;0.30;;;14.80;80.70;;;;;;4992798;28;20195;-68
2021/06/28 05:09:15;;;;;;;0.10;0.10;;;14.80;80.50;;;;;;4995280;28;20104;-68
2021/06/28 05:11:43;;;;;;;0.20;0.20;;;14.90;80.50;;;;;;4992643;28;20049;-68
2021/06/28 05:14:11;;;;;;;0.10;0.10;;;14.90;80.20;;;;;;5001863;28;20484;-68
2021/06/28 05:16:37;;;;;;;0.20;0.13;;;14.90;80.30;;;;;;5011224;28;20054;-68
2021/06/28 05:19:04;;;;;;;0.10;0.10;;;14.90;80.40;;;;;;5010433;28;20038;-68
2021/06/28 05:21:30;;;;;;;0.03;0.03;;;14.90;80.40;;;;;;4991789;28;20498;-68
2021/06/28 05:23:56;;;;;;;0.10;0.10;;;14.90;80.30;;;;;;4993005;28;20120;-67
2021/06/28 05:26:23;;;;;;;0.10;0.10;;;15.00;80.40;;;;;;4994230;28;20050;-67
2021/06/28 05:28:50;;;;;;;0.20;0.20;;;15.10;80.40;;;;;;4992743;28;20050;-67
2021/06/28 05:31:16;;;;;;;0.38;0.30;;;15.10;80.00;;;;;;4993397;28;20097;-67
2021/06/28 05:33:42;;;;;;;0.00;0.00;;;15.20;79.80;;;;;;5008313;28;20363;-67
2021/06/28 05:36:09;;;;;;;0.20;0.20;;;15.20;79.70;;;;;;5011185;28;20042;-67
2021/06/28 05:38:35;;;;;;;0.05;0.05;;;15.20;79.30;;;;;;4989645;28;20085;-67
2021/06/28 05:41:01;;;;;;;0.10;0.10;;;15.30;79.30;;;;;;5007823;28;20081;-67
2021/06/28 05:43:28;;;;;;;0.17;0.10;;;15.30;78.90;;;;;;5011119;28;20045;-67
2021/06/28 05:45:54;;;;;;;0.10;0.10;;;15.40;78.30;;;;;;5011512;28;20046;-68
2021/06/28 05:48:20;;;;;;;0.20;0.20;;;15.30;77.80;;;;;;5010407;28;20090;-67
2021/06/28 05:50:49;;;;;;;0.05;0.05;;;15.20;78.30;;;;;;4999367;28;20069;-67
2021/06/28 05:53:15;;;;;;;0.10;0.10;;;15.20;78.20;;;;;;4992668;28;20058;-67
2021/06/28 05:55:41;;;;;;;0.40;0.20;;;15.20;78.20;;;;;;4992026;28;20571;-67
2021/06/28 05:58:08;;;;;;;0.00;0.00;;;15.20;77.70;;;;;;4995147;28;20052;-67
2021/06/28 06:00:34;;;;;;;0.15;0.15;;;15.10;77.80;;;;;;4999754;28;20046;-68
2021/06/28 06:03:01;;;;;;;0.10;0.10;;;15.10;77.70;;;;;;5001572;28;20486;-68
2021/06/28 06:05:27;;;;;;;0.10;0.10;;;15.10;78.10;;;;;;4997430;28;20107;-67
2021/06/28 06:07:53;;;;;;;0.10;0.10;;;15.10;77.90;;;;;;4994678;28;20046;-71
2021/06/28 06:10:20;;;;;;;0.13;0.13;;;15.00;78.10;;;;;;4993618;28;20089;-67
2021/06/28 06:12:46;;;;;;;0.20;0.20;;;15.00;78.70;;;;;;5011057;28;20083;-65
2021/06/28 06:15:13;;;;;;;0.15;0.10;;;15.10;78.80;;;;;;5011700;28;20095;-66
2021/06/28 06:17:40;;;;;;;0.20;0.13;;;15.20;78.30;;;;;;5011216;28;20135;-64
2021/06/28 06:20:07;;;;;;;0.20;0.20;;;15.20;78.40;;;;;;5020856;28;20038;-70
2021/06/28 06:22:35;;;;;;;0.20;0.13;;;15.30;78.00;;;;;;5011246;28;20046;-70
2021/06/28 06:25:01;;;;;;;0.30;0.20;;;15.40;77.50;;;;;;5006117;28;20056;-69
2021/06/28 06:27:28;;;;;;;0.20;0.20;;;15.40;77.90;;;;;;4998844;28;20466;-68
2021/06/28 06:29:54;;;;;;;0.20;0.20;;;15.40;78.30;;;;;;5007567;28;20050;-68
2021/06/28 06:32:20;;;;;;;0.20;0.20;;;15.40;78.70;;;;;;4998263;28;20066;-67
2021/06/28 06:34:46;;;;;;;0.10;0.10;;;15.50;78.00;;;;;;5010439;28;20054;-67
2021/06/28 06:37:13;;;;;;;0.20;0.20;;;15.40;77.80;;;;;;5006483;28;20050;-68
2021/06/28 06:39:39;;;;;;;0.00;0.00;;;15.50;78.20;;;;;;5007448;28;20224;-68
2021/06/28 06:42:06;;;;;;;0.28;0.28;;;15.50;77.70;;;;;;5006622;28;20532;-68
2021/06/28 06:44:32;;;;;;;0.47;0.20;;;15.40;78.50;;;;;;4997672;28;20046;-68
2021/06/28 06:46:59;;;;;;;0.20;0.20;;;15.60;78.90;;;;;;5003551;28;20568;-68
2021/06/28 06:49:26;;;;;;;0.20;0.20;;;15.60;77.30;;;;;;4989155;28;20054;-67
2021/06/28 06:51:52;;;;;;;0.25;0.20;;;15.60;77.50;;;;;;4995505;28;20092;-68
2021/06/28 06:54:19;;;;;;;0.20;0.10;;;15.70;77.50;;;;;;5007169;28;20062;-69
2021/06/28 06:56:46;;;;;;;0.32;0.30;;;15.70;77.60;;;;;;4993945;28;20623;-66
2021/06/28 06:59:12;;;;;;;0.10;0.10;;;15.80;77.30;;;;;;5006465;28;20042;-69
2021/06/28 07:01:40;;;;;;;0.13;0.13;;;15.90;77.20;;;;;;5001037;28;20149;-66
2021/06/28 07:04:07;;;;;;;0.45;0.20;;;15.90;77.00;;;;;;5006371;28;20092;-66
2021/06/28 07:06:34;;;;;;;0.10;0.10;;;16.00;76.40;;;;;;5001479;28;20050;-66
2021/06/28 07:09:00;;;;;;;0.05;0.05;;;16.00;76.10;;;;;;5007844;28;20160;-65
2021/06/28 07:11:27;;;;;;;0.20;0.20;;;16.00;76.40;;;;;;5007311;28;20061;-67
2021/06/28 07:15:09;;;;;;;1.08;0.30;;;16.10;75.70;;;;;;5121917;27;20655;-66
2021/06/28 07:17:35;;;;;;;0.30;0.20;;;16.20;75.70;;;;;;5109998;28;20055;-66
2021/06/28 07:20:07;;;;;;;0.32;0.20;;;16.30;75.30;;;;;;5105322;28;20097;-66
2021/06/28 07:22:33;;;;;;;0.28;0.17;;;16.40;75.20;;;;;;5106034;28;20063;-66
2021/06/28 07:25:00;;;;;;;0.15;0.15;;;16.50;75.10;;;;;;5097182;28;20051;-67
2021/06/28 07:27:27;;;;;;;0.05;0.03;;;16.50;74.50;;;;;;5106613;28;20063;-66
2021/06/28 07:29:53;;;;;;;0.10;0.10;;;16.70;74.30;;;;;;5105309;28;20123;-67
2021/06/28 07:32:19;;;;;;;0.10;0.10;;;16.80;73.80;;;;;;5107388;28;20138;-70
2021/06/28 07:34:45;;;;;;;0.00;0.00;;;16.90;73.40;;;;;;5104844;28;20199;-68
2021/06/28 07:37:12;;;;;;;0.75;0.22;;;17.00;73.00;;;;;;5109937;28;20047;-67
2021/06/28 07:39:38;;;;;;;0.20;0.20;;;17.10;72.70;;;;;;5104793;28;20525;-67
2021/06/28 07:42:05;;;;;;;0.10;0.10;;;17.20;72.10;;;;;;5108859;28;20180;-68
2021/06/28 07:44:31;;;;;;;0.10;0.10;;;17.30;71.80;;;;;;5101779;28;20108;-67
2021/06/28 07:46:57;;;;;;;0.10;0.10;;;17.30;71.20;;;;;;5108546;28;20055;-67
2021/06/28 07:49:24;;;;;;;0.10;0.10;;;17.20;71.30;;;;;;5105113;28;20056;-68
2021/06/28 07:51:50;;;;;;;0.10;0.10;;;17.20;71.80;;;;;;5105287;28;20127;-67
2021/06/28 07:54:17;;;;;;;0.15;0.15;;;17.30;71.80;;;;;;5104751;28;20447;-68
2021/06/28 07:56:44;;;;;;;0.10;0.10;;;17.40;71.70;;;;;;5105432;28;20079;-68
2021/06/28 07:59:11;;;;;;;0.10;0.10;;;17.40;71.30;;;;;;5105029;28;20073;-67
2021/06/28 08:01:37;;;;;;;0.35;0.20;;;17.40;71.40;;;;;;5106543;28;20048;-68
2021/06/28 08:04:04;;;;;;;0.10;0.10;;;17.40;71.30;;;;;;5105236;28;20138;-68
2021/06/28 08:06:30;;;;;;;0.20;0.20;;;17.50;71.40;;;;;;5110566;28;20543;-67
2021/06/28 08:08:56;;;;;;;0.10;0.10;;;17.50;71.70;;;;;;5105528;28;20457;-71
2021/06/28 08:11:24;;;;;;;0.25;0.25;;;17.50;71.70;;;;;;5109249;28;20047;-69
2021/06/28 08:13:52;;;;;;;0.13;0.13;;;17.50;71.30;;;;;;5101434;28;20071;-67
2021/06/28 08:16:20;;;;;;;0.17;0.17;;;17.40;71.10;;;;;;5108453;28;20043;-67
2021/06/28 08:18:51;;;;;;;0.20;0.13;;;17.30;71.90;;;;;;5109166;28;20051;-66
2021/06/28 08:21:19;;;;;;;0.13;0.13;;;17.30;70.60;;;;;;5104371;28;20463;-68
2021/06/28 08:23:46;;;;;;;0.10;0.10;;;17.20;71.20;;;;;;5103963;28;20044;-68
2021/06/28 08:26:13;;;;;;;0.10;0.10;;;17.20;71.60;;;;;;5088098;28;20048;-66
2021/06/28 08:28:40;;;;;;;0.22;0.20;;;17.30;71.60;;;;;;5090119;28;20063;-66
2021/06/28 08:31:06;;;;;;;0.20;0.20;;;17.40;72.00;;;;;;5090888;28;20047;-65
2021/06/28 08:33:35;;;;;;;0.10;0.10;;;17.40;71.60;;;;;;5090178;28;20056;-68
2021/06/28 08:36:02;;;;;;;0.10;0.08;;;17.60;71.60;;;;;;5089617;28;20659;-67
2021/06/28 08:38:29;;;;;;;0.10;0.10;;;17.70;71.40;;;;;;5089422;28;20044;-67
2021/06/28 08:40:56;;;;;;;0.05;0.05;;;17.80;70.00;;;;;;5090333;28;20459;-67
2021/06/28 08:43:22;;;;;;;0.10;0.10;;;17.90;69.90;;;;;;5087225;28;20051;-67
2021/06/28 08:45:50;;;;;;;0.32;0.22;;;18.00;70.10;;;;;;5090399;28;20184;-67
2021/06/28 08:48:16;;;;;;;0.00;0.00;;;18.20;69.70;;;;;;5091887;28;20100;-67
2021/06/28 08:50:42;;;;;;;0.10;0.10;;;18.40;69.20;;;;;;5088286;28;20092;-68
2021/06/28 08:53:10;;;;;;;0.10;0.10;;;18.40;68.50;;;;;;5089202;28;20048;-69
2021/06/28 08:55:39;;;;;;;0.08;0.08;;;18.30;68.40;;;;;;5088600;28;20040;-68
2021/06/28 08:58:06;;;;;;;0.68;0.10;;;18.30;68.70;;;;;;5094310;28;20460;-68
2021/06/28 09:00:32;;;;;;;0.10;0.10;;;18.20;69.20;;;;;;5090609;28;20052;-67
2021/06/28 09:03:01;;;;;;;0.20;0.20;;;18.20;69.50;;;;;;5092375;28;20138;-67
2021/06/28 09:05:28;;;;;;;0.57;0.32;;;18.20;69.50;;;;;;5089793;28;20051;-67
2021/06/28 09:08:13;;;;;;;0.20;0.20;;;18.10;69.40;;;;;;5090376;28;20052;-68
2021/06/28 09:10:44;;;;;;;0.20;0.20;;;18.00;69.80;;;;;;5091650;28;20178;-67
2021/06/28 09:13:11;;;;;;;0.20;0.20;;;17.80;70.30;;;;;;5084477;28;20085;-67
2021/06/28 09:15:43;;;;;;;0.65;0.52;;;17.70;70.80;;;;;;5089234;28;20507;-68
2021/06/28 09:18:24;;;;;;;0.50;0.40;;;17.70;71.10;;;;;;5096257;28;20551;-68
2021/06/28 09:21:05;;;;;;;0.15;0.15;;;17.70;72.70;;;;;;5089096;28;20083;-68
2021/06/28 09:23:32;;;;;;;0.10;0.10;;;17.70;71.80;;;;;;5076840;28;20529;-68
2021/06/28 09:25:59;;;;;;;0.25;0.25;;;17.70;71.90;;;;;;5095197;28;20053;-68
2021/06/28 09:28:41;;;;;;;0.20;0.20;;;17.60;71.70;;;;;;5101754;28;20496;-68
2021/06/28 09:31:09;;;;;;;0.17;0.17;;;17.50;72.60;;;;;;5081259;28;20052;-68
2021/06/28 09:33:36;;;;;;;0.10;0.10;;;17.50;73.50;;;;;;5088839;28;20121;-69
2021/06/28 09:36:22;;;;;;;0.25;0.20;;;17.40;73.30;;;;;;5087995;28;20048;-69
2021/06/28 09:38:49;;;;;;;0.10;0.10;;;17.40;73.40;;;;;;5087348;28;20093;-68
2021/06/28 09:41:34;;;;;;;0.22;0.20;;;17.40;73.50;;;;;;5085945;28;20044;-68
2021/06/28 09:44:06;;;;;;;0.10;0.10;;;17.40;73.70;;;;;;5084821;28;20092;-68
2021/06/28 09:46:35;;;;;;;0.10;0.10;;;17.40;74.00;;;;;;5091902;28;20072;-68
2021/06/28 09:49:02;;;;;;;0.10;0.10;;;17.40;74.10;;;;;;5088855;28;20100;-68
2021/06/28 09:51:35;;;;;;;0.45;0.22;;;17.40;73.20;;;;;;5081760;28;20186;-67
2021/06/28 09:54:08;;;;;;;0.08;0.08;;;17.40;73.50;;;;;;5083637;28;20059;-68
2021/06/28 09:56:38;;;;;;;0.10;0.08;;;17.50;73.90;;;;;;5083998;28;20479;-69
2021/06/28 09:59:24;;;;;;;0.10;0.10;;;17.70;74.40;;;;;;5086291;28;20040;-68
2021/06/28 10:02:14;;;;;;;0.10;0.10;;;17.90;74.40;;;;;;5091732;28;20044;-71
2021/06/28 10:04:51;;;;;;;0.13;0.13;;;18.10;74.40;;;;;;5089262;28;20137;-68
2021/06/28 10:07:36;;;;;;;0.10;0.10;;;18.20;73.50;;;;;;5093094;28;20044;-69
2021/06/28 10:10:09;;;;;;;0.10;0.10;;;18.30;73.50;;;;;;5090609;28;20055;-70
2021/06/28 10:12:37;;;;;;;0.10;0.10;;;18.40;73.10;;;;;;5083217;28;20051;-75
2021/06/28 10:15:06;;;;;;;0.20;0.20;;;18.50;73.20;;;;;;5087340;28;20443;-70
2021/06/28 10:17:32;;;;;;;0.10;0.10;;;18.50;73.20;;;;;;5088122;28;20465;-70
2021/06/28 10:19:59;;;;;;;0.10;0.10;;;18.60;73.10;;;;;;5087341;28;20127;-71
2021/06/28 10:22:25;;;;;;;0.20;0.17;;;18.60;72.90;;;;;;5087996;28;20396;-71
2021/06/28 10:24:52;;;;;;;0.10;0.10;;;18.60;72.60;;;;;;5085408;28;20630;-70
2021/06/28 10:27:19;;;;;;;0.10;0.10;;;18.60;72.80;;;;;;5086764;28;20051;-70
2021/06/28 10:29:45;;;;;;;0.10;0.10;;;18.50;71.20;;;;;;5087524;28;20048;-70
2021/06/28 10:32:13;;;;;;;0.17;0.17;;;18.40;71.50;;;;;;5087074;28;20048;-70
2021/06/28 10:34:40;;;;;;;0.32;0.20;;;18.40;72.00;;;;;;5086919;28;20423;-70
2021/06/28 10:37:29;;;;;;;0.00;0.00;;;18.40;71.80;;;;;;5088418;28;20127;-70
2021/06/28 10:39:58;;;;;;;0.22;0.10;;;18.50;72.00;;;;;;5087787;28;20059;-70
2021/06/28 10:42:52;;;;;;;0.30;0.22;;;18.50;72.30;;;;;;5087644;28;20567;-70
2021/06/28 10:45:38;;;;;;;0.10;0.10;;;18.60;72.40;;;;;;5084606;28;20167;-69
2021/06/28 10:48:10;;;;;;;0.10;0.10;;;18.60;72.60;;;;;;5088938;28;20048;-70
2021/06/28 10:50:51;;;;;;;0.10;0.10;;;18.60;72.80;;;;;;5086550;28;20044;-70
2021/06/28 10:53:38;;;;;;;0.15;0.15;;;18.70;72.90;;;;;;5089722;28;20090;-70
2021/06/28 10:56:26;;;;;;;0.10;0.10;;;18.70;72.30;;;;;;5088115;28;20101;-70
2021/06/28 10:58:56;;;;;;;0.20;0.10;;;18.70;72.30;;;;;;5084398;28;20539;-70
2021/06/28 11:01:41;;;;;;;0.10;0.10;;;18.60;72.40;;;;;;5072640;28;20056;-70
2021/06/28 11:04:12;;;;;;;0.10;0.10;;;18.60;72.20;;;;;;5083331;28;20051;-70
2021/06/28 11:07:04;;;;;;;;;;;18.60;71.70;;;;;;5087642;28;20185;-71
2021/06/28 11:09:59;;;;;;;0.10;0.10;;;18.60;71.80;;;;;;5085042;28;20509;-70
2021/06/28 11:12:27;;;;;;;0.10;0.10;;;18.50;72.00;;;;;;5087631;28;20054;-70
2021/06/28 11:15:07;;;;;;;0.20;0.20;;;18.50;72.60;;;;;;5086604;28;20426;-70
2021/06/28 11:17:42;;;;;;;0.10;0.10;;;18.50;72.80;;;;;;5087344;28;20973;-70
2021/06/28 11:20:22;;;;;;;0.10;0.10;;;18.50;73.30;;;;;;5087130;28;20176;-70
2021/06/28 11:23:00;;;;;;;0.20;0.20;;;18.50;73.60;;;;;;5087482;28;20588;-70
2021/06/28 11:25:34;;;;;;;0.10;0.10;;;18.50;74.20;;;;;;5088631;28;20889;-70
2021/06/28 11:28:00;;;;;;;0.15;0.15;;;18.40;74.40;;;;;;5087231;28;20533;-70
2021/06/28 11:30:29;;;;;;;0.38;0.25;;;18.40;74.50;;;;;;5076892;28;20051;-70
2021/06/28 11:33:06;;;;;;;0.10;0.10;;;18.30;75.40;;;;;;5088993;28;20089;-69
2021/06/28 11:35:48;;;;;;;0.10;0.10;;;18.30;76.00;;;;;;5087567;28;20052;-68
2021/06/28 11:38:25;;;;;;;0.20;0.20;;;18.20;76.30;;;;;;5088633;28;20590;-69
2021/06/28 11:40:58;;;;;;;0.15;0.15;;;18.10;76.90;;;;;;5007351;28;20386;-67
2021/06/28 11:43:43;;;;;;;0.10;0.10;;;18.00;77.10;;;;;;5028755;28;20166;-68
2021/06/28 11:46:16;;;;;;;0.10;0.10;;;17.90;77.40;;;;;;5028461;28;20061;-67
2021/06/28 11:48:58;;;;;;;0.30;0.20;;;17.80;77.40;;;;;;5028190;28;20045;-67
2021/06/28 11:51:27;;;;;;;0.13;0.13;;;17.70;77.30;;;;;;5030428;28;20128;-68
2021/06/28 11:54:01;;;;;;;0.10;0.10;;;17.60;78.30;;;;;;5028087;28;20053;-69
2021/06/28 11:56:37;;;;;;;0.10;0.10;;;17.50;79.10;;;;;;5021096;28;20049;-68
2021/06/28 11:59:14;;;;;;;0.13;0.13;;;17.40;79.40;;;;;;5027730;28;20095;-68
2021/06/28 12:01:58;;;;;;;0.10;0.10;;;17.40;79.80;;;;;;5034546;28;20128;-68
2021/06/28 12:04:27;;;;;;;0.10;0.10;;;17.30;80.50;;;;;;5029905;28;20057;-68
2021/06/28 12:06:54;;;;;;;0.20;0.20;;;17.30;80.70;;;;;;5030735;28;20049;-68
2021/06/28 12:09:25;;;;;;;0.10;0.10;;;17.30;80.90;;;;;;5031162;28;20123;-68
2021/06/28 12:11:54;;;;;;;0.28;0.28;;;17.30;81.40;;;;;;5033024;28;20606;-68
2021/06/28 12:14:36;;;;;;;0.10;0.10;;;17.30;81.70;;;;;;5027090;28;20144;-69
2021/06/28 12:17:09;;;;;;;0.15;0.15;;;17.30;81.30;;;;;;5031080;28;20123;-69
2021/06/28 12:19:36;;;;;;;0.20;0.20;;;17.30;82.00;;;;;;5030772;28;20057;-68
2021/06/28 12:22:17;;;;;;;0.10;0.10;;;17.30;82.40;;;;;;5039364;28;20049;-69
2021/06/28 12:24:47;;;;;;;0.47;0.22;;;17.30;82.70;;;;;;5028643;28;20056;-69
2021/06/28 12:27:16;;;;;;;0.10;0.10;;;17.30;82.60;;;;;;5031231;28;20576;-70
2021/06/28 12:29:45;;;;;;;0.20;0.20;;;17.30;82.40;;;;;;5030569;28;20143;-69
2021/06/28 12:32:16;;;;;;;0.13;0.13;;;17.30;82.50;;;;;;5032555;28;20089;-68
2021/06/28 12:34:50;;;;;;;0.10;0.10;;;17.40;82.70;;;;;;5029989;28;20045;-68
2021/06/28 12:37:22;;;;;;;0.20;0.20;;;17.50;82.80;;;;;;5030330;28;20436;-69
2021/06/28 12:39:49;;;;;;;0.10;0.10;;;17.60;82.60;;;;;;5030372;28;20135;-69
2021/06/28 12:42:20;;;;;;;0.10;0.10;;;17.60;82.60;;;;;;5032334;28;20082;-69
2021/06/28 12:44:48;;;;;;;0.10;0.10;;;17.70;82.60;;;;;;5029794;28;20111;-69
2021/06/28 12:47:17;;;;;;;0.10;0.10;;;17.80;81.50;;;;;;5031608;28;20497;-69
2021/06/28 12:49:44;;;;;;;0.10;0.10;;;17.90;81.30;;;;;;5030119;28;20053;-69
2021/06/28 12:52:29;;;;;;;0.10;0.10;;;18.00;81.30;;;;;;5032902;28;20132;-69
2021/06/28 12:55:34;;;;;;;0.20;0.10;;;18.10;81.00;;;;;;5030013;28;20457;-69
2021/06/28 12:58:10;;;;;;;0.08;0.08;;;18.20;77.70;;;;;;4972985;28;20093;-69
2021/06/28 13:00:51;;;;;;;0.00;0.00;;;18.20;76.70;;;;;;4967903;28;20109;-68